Time;durP1;ratioP1;P1;durP2;ratioP2;P2;SDS_P1;SDS_P2;PMS_P1;PMS_P2;Temp;Humidity;BMP_temperature;BMP_pressure;BME280_temperature;BME280_humidity;BME280_pressure;Samples;Min_cycle;Max_cycle;Signal;HPM_P1;HPM_P2
2022/03/28 00:01:18;;;;;;;11.15;4.47;;;11.00;99.90;;;11.18;77.65;102009.94;5225150;28;20056;-72
2022/03/28 00:03:50;;;;;;;11.02;4.93;;;11.00;99.90;;;11.12;77.57;102006.19;5224998;28;20052;-71
2022/03/28 00:06:22;;;;;;;11.63;4.50;;;10.90;99.90;;;11.07;77.60;102012.88;5224894;28;20049;-72
2022/03/28 00:08:54;;;;;;;9.23;4.65;;;10.90;99.90;;;11.02;77.87;102005.63;5224899;28;20494;-72
2022/03/28 00:11:28;;;;;;;11.68;4.55;;;10.90;99.90;;;10.98;77.97;102012.41;5225236;28;20049;-72
2022/03/28 00:14:00;;;;;;;11.13;4.50;;;10.90;99.90;;;10.93;78.05;101998.22;5224775;28;20064;-71
2022/03/28 00:16:32;;;;;;;10.98;4.65;;;10.80;99.90;;;10.90;78.11;102002.41;5224865;28;20056;-72
2022/03/28 00:19:05;;;;;;;13.25;5.18;;;10.70;99.90;;;10.85;78.42;101995.22;5223703;28;20037;-73
2022/03/28 00:21:37;;;;;;;12.15;4.75;;;10.70;99.90;;;10.83;78.37;101993.38;5244712;28;20048;-72
2022/03/28 00:24:09;;;;;;;9.38;4.32;;;10.70;99.90;;;10.80;78.61;101991.47;5249722;28;20052;-72
2022/03/28 00:26:42;;;;;;;10.25;4.28;;;10.70;99.90;;;10.78;78.89;101989.59;5238835;28;20506;-72
2022/03/28 00:29:14;;;;;;;12.90;5.32;;;10.60;99.90;;;10.75;78.85;101987.72;5241182;28;20406;-72
2022/03/28 00:31:46;;;;;;;9.60;4.45;;;10.60;99.90;;;10.72;78.93;101976.25;5249580;28;20465;-71
2022/03/28 00:34:21;;;;;;;12.55;4.80;;;10.60;99.90;;;10.68;78.87;101969.06;5249765;28;20071;-72
2022/03/28 00:36:53;;;;;;;10.88;4.35;;;10.50;99.90;;;10.63;78.88;101970.50;5249301;28;20049;-72
2022/03/28 00:39:25;;;;;;;10.57;4.38;;;10.50;99.90;;;10.60;79.18;101979.09;5248613;28;20051;-71
2022/03/28 00:41:58;;;;;;;11.60;4.63;;;10.40;99.90;;;10.56;79.10;101974.50;5237961;28;20128;-71
2022/03/28 00:44:32;;;;;;;10.43;4.80;;;10.40;99.90;;;10.52;79.16;101968.25;5228594;28;20052;-71
2022/03/28 00:47:05;;;;;;;11.48;4.80;;;10.40;99.90;;;10.51;79.15;101970.78;5228507;28;20060;-72
2022/03/28 00:49:37;;;;;;;11.73;4.93;;;10.40;99.90;;;10.46;79.23;101967.94;5228222;28;20049;-72
2022/03/28 00:52:10;;;;;;;11.90;4.70;;;10.30;99.90;;;10.45;79.59;101967.84;5228739;28;20052;-72
2022/03/28 00:54:43;;;;;;;11.65;4.85;;;10.30;99.90;;;10.42;79.54;101965.06;5228529;28;20481;-72
2022/03/28 00:57:17;;;;;;;10.35;4.47;;;10.30;99.90;;;10.37;79.20;101967.44;5227910;28;20057;-72
2022/03/28 00:59:49;;;;;;;13.05;4.70;;;10.20;99.90;;;10.29;79.32;101964.38;5228213;28;20053;-72
2022/03/28 01:02:21;;;;;;;12.20;4.80;;;10.20;99.90;;;10.23;79.37;101953.63;5228322;28;20053;-71
2022/03/28 01:04:53;;;;;;;11.90;4.57;;;10.20;99.90;;;10.19;79.69;101958.59;5228452;28;20406;-72
2022/03/28 01:07:27;;;;;;;13.63;5.63;;;10.10;99.90;;;10.17;79.81;101958.50;5227797;28;20049;-73
2022/03/28 01:09:59;;;;;;;11.75;4.55;;;10.10;99.90;;;10.13;79.76;101960.84;5227673;28;20051;-71
2022/03/28 01:12:34;;;;;;;12.18;4.45;;;10.00;99.90;;;10.11;79.80;101954.66;5227925;28;20053;-72
2022/03/28 01:15:07;;;;;;;12.43;5.05;;;10.00;99.90;;;10.05;79.96;101940.47;5239590;28;20072;-71
2022/03/28 01:20:35;;;;;;;14.45;5.15;;;10.00;99.90;;;10.01;80.20;101943.72;5248588;28;20056;-72
2022/03/28 01:23:10;;;;;;;12.57;4.93;;;9.90;99.90;;;9.99;80.29;101942.75;5248395;28;20071;-72
2022/03/28 01:25:44;;;;;;;13.32;5.25;;;9.90;99.90;;;9.97;80.23;101939.13;5248922;28;20135;-71
2022/03/28 01:28:16;;;;;;;12.90;5.57;;;9.90;99.90;;;9.93;80.44;101941.50;5248304;28;20052;-71
2022/03/28 01:30:49;;;;;;;12.30;4.70;;;9.90;99.90;;;9.90;80.36;101939.63;5248096;28;20044;-71
2022/03/28 01:33:22;;;;;;;10.70;5.25;;;9.80;99.90;;;9.86;80.32;101935.06;5247788;28;20048;-72
2022/03/28 01:35:54;;;;;;;13.52;5.07;;;9.70;99.90;;;9.83;80.42;101929.66;5247958;28;20358;-72
2022/03/28 01:38:27;;;;;;;11.65;4.72;;;9.70;99.90;;;9.79;80.69;101928.63;5248105;28;20067;-71
2022/03/28 01:40:59;;;;;;;12.73;5.05;;;9.70;99.90;;;9.77;80.80;101918.91;5248360;28;20408;-72
2022/03/28 01:43:31;;;;;;;11.60;5.00;;;9.70;99.90;;;9.74;80.62;101913.53;5248103;28;20045;-72
2022/03/28 01:46:03;;;;;;;10.63;4.82;;;9.60;99.90;;;9.69;80.57;101915.88;5247980;28;20071;-71
2022/03/28 01:48:35;;;;;;;10.05;4.38;;;9.60;99.90;;;9.66;80.84;101909.63;5247648;28;20589;-72
2022/03/28 01:51:07;;;;;;;13.13;5.32;;;9.60;99.90;;;9.62;81.45;101905.03;5248042;28;20041;-72
2022/03/28 01:53:40;;;;;;;14.85;6.28;;;9.50;99.90;;;9.64;81.93;101896.50;5248238;28;20048;-72
2022/03/28 02:03:44;;;;;;;13.02;5.78;;;9.70;99.90;;;9.81;81.97;101902.66;5221653;28;20094;-71
2022/03/28 02:06:16;;;;;;;13.15;5.47;;;9.70;99.90;;;9.82;81.58;101900.94;5226727;28;20049;-73
2022/03/28 02:08:49;;;;;;;16.25;6.05;;;9.70;99.90;;;9.81;81.67;101899.16;5226528;28;20053;-72
2022/03/28 02:11:21;;;;;;;15.13;6.15;;;9.70;99.90;;;9.78;81.42;101894.69;5240675;28;20051;-73
2022/03/28 02:13:53;;;;;;;13.15;5.72;;;9.70;99.90;;;9.71;81.11;101893.41;5247405;28;20048;-71
2022/03/28 02:16:25;;;;;;;13.20;5.72;;;9.60;99.90;;;9.64;80.69;101898.22;5247619;28;20059;-71
2022/03/28 02:18:58;;;;;;;12.70;5.35;;;9.60;99.90;;;9.56;80.83;101884.75;5226682;28;20527;-71
2022/03/28 02:21:30;;;;;;;14.50;5.93;;;9.50;99.90;;;9.49;81.22;101888.72;5242007;28;20114;-72
2022/03/28 02:24:04;;;;;;;14.15;5.88;;;9.50;99.90;;;9.45;81.83;101889.38;5247773;28;20048;-71
2022/03/28 02:26:36;;;;;;;16.95;6.15;;;9.40;99.90;;;9.44;81.62;101884.97;5247135;28;20049;-71
2022/03/28 02:29:08;;;;;;;13.90;5.82;;;9.40;99.90;;;9.42;81.68;101883.09;5246872;28;20134;-71
2022/03/28 02:31:40;;;;;;;13.32;5.63;;;9.40;99.90;;;9.38;81.90;101881.13;5247410;28;20492;-72
2022/03/28 02:34:12;;;;;;;16.75;6.32;;;9.30;99.90;;;9.33;81.50;101877.38;5247212;28;20071;-75
2022/03/28 02:36:44;;;;;;;15.02;6.45;;;9.30;99.90;;;9.27;82.31;101867.53;5247352;28;20048;-72
2022/03/28 02:39:17;;;;;;;16.63;6.43;;;9.20;99.90;;;9.28;82.16;101873.63;5246419;28;20050;-72
2022/03/28 02:41:49;;;;;;;16.40;7.15;;;9.20;99.90;;;9.24;82.45;101867.31;5234847;28;20505;-71
2022/03/28 02:44:21;;;;;;;15.65;6.63;;;9.20;99.90;;;9.19;82.35;101858.34;5225385;28;20099;-71
2022/03/28 02:46:53;;;;;;;16.63;6.35;;;9.10;99.90;;;9.15;82.05;101853.81;5226109;28;20049;-72
2022/03/28 02:49:26;;;;;;;16.45;6.90;;;9.10;99.90;;;9.09;82.47;101856.06;5225880;28;20371;-72
2022/03/28 02:51:57;;;;;;;16.67;6.57;;;9.10;99.90;;;9.05;82.81;101849.75;5226188;28;20119;-71
2022/03/28 02:54:31;;;;;;;17.67;6.47;;;9.00;99.90;;;9.05;83.02;101843.66;5226149;28;20071;-72
2022/03/28 02:57:03;;;;;;;13.18;5.53;;;9.00;99.90;;;9.02;82.86;101846.09;5225502;28;20071;-72
2022/03/28 02:59:35;;;;;;;14.32;5.82;;;9.00;99.90;;;8.99;82.81;101839.00;5225536;28;20037;-72
2022/03/28 03:02:08;;;;;;;16.40;6.47;;;8.90;99.90;;;8.97;82.76;101841.53;5237981;28;20404;-72
2022/03/28 03:04:40;;;;;;;18.30;7.00;;;9.00;99.90;;;8.96;82.93;101841.44;5246636;28;20470;-71
2022/03/28 03:07:12;;;;;;;17.67;6.68;;;8.90;99.90;;;8.94;83.32;101843.97;5246230;28;20048;-71
2022/03/28 03:09:45;;;;;;;14.65;6.18;;;8.90;99.90;;;8.93;82.82;101839.56;5246239;28;20041;-73
2022/03/28 03:12:17;;;;;;;15.27;6.20;;;8.90;99.90;;;8.89;82.90;101837.59;5246617;28;20054;-73
2022/03/28 03:14:49;;;;;;;18.10;6.93;;;8.90;99.90;;;8.85;83.01;101833.00;5246253;28;20044;-72
2022/03/28 03:17:21;;;;;;;15.60;6.63;;;8.80;99.90;;;8.83;82.85;101832.03;5245898;28;20058;-71
2022/03/28 03:19:53;;;;;;;15.43;6.20;;;8.80;99.90;;;8.81;83.41;101828.47;5246301;28;20045;-72
2022/03/28 03:22:25;;;;;;;21.17;6.93;;;8.80;99.90;;;8.79;83.15;101834.34;5246515;28;20044;-71
2022/03/28 03:24:59;;;;;;;16.63;6.78;;;8.80;99.90;;;8.77;83.04;101831.66;5246205;28;20044;-72
2022/03/28 03:27:31;;;;;;;16.48;6.57;;;8.80;99.90;;;8.74;83.06;101835.78;5245626;28;20055;-71
2022/03/28 03:30:03;;;;;;;14.07;6.20;;;8.70;99.90;;;8.69;83.25;101827.75;5246222;28;20045;-71
2022/03/28 03:32:35;;;;;;;16.58;6.72;;;8.70;99.90;;;8.65;83.34;101829.25;5246359;28;20049;-72
2022/03/28 03:35:08;;;;;;;16.98;6.75;;;8.70;99.90;;;8.63;83.14;101833.47;5246262;28;20459;-71
2022/03/28 03:37:41;;;;;;;15.15;6.32;;;8.60;99.90;;;8.61;83.31;101829.91;5245573;28;20552;-71
2022/03/28 03:40:14;;;;;;;18.58;7.25;;;8.60;99.90;;;8.60;83.92;101834.97;5245899;28;20040;-72
2022/03/28 03:42:46;;;;;;;14.55;6.32;;;8.60;99.90;;;8.61;83.79;101834.19;5246180;28;20048;-71
2022/03/28 03:45:18;;;;;;;14.30;6.65;;;8.60;99.90;;;8.62;83.65;101825.59;5246150;28;20050;-73
2022/03/28 03:47:50;;;;;;;15.75;6.07;;;8.60;99.90;;;8.60;83.78;101821.97;5245481;28;20059;-72
2022/03/28 03:50:22;;;;;;;13.68;6.57;;;8.60;99.90;;;8.59;84.30;101815.00;5245938;28;20054;-71
2022/03/28 03:52:55;;;;;;;18.80;7.18;;;8.60;99.90;;;8.58;84.36;101810.59;5245786;28;20055;-72
2022/03/28 03:55:28;;;;;;;18.55;6.80;;;8.50;99.90;;;8.56;84.15;101809.63;5245419;28;20053;-71
2022/03/28 03:58:00;;;;;;;15.32;6.55;;;8.60;99.90;;;8.56;84.29;101807.03;5245625;28;20050;-71
2022/03/28 04:00:32;;;;;;;15.65;6.45;;;8.50;99.90;;;8.56;84.47;101809.63;5245927;28;20045;-71
2022/03/28 04:03:05;;;;;;;16.10;7.07;;;8.50;99.90;;;8.57;84.46;101796.72;5246115;28;20045;-72
2022/03/28 04:05:37;;;;;;;19.67;7.40;;;8.50;99.90;;;8.57;84.37;101795.81;5246237;28;20482;-72
2022/03/28 04:08:09;;;;;;;15.55;7.18;;;8.50;99.90;;;8.60;84.69;101791.69;5245319;28;20067;-72
2022/03/28 04:10:43;;;;;;;19.00;7.57;;;8.60;99.90;;;8.59;84.75;101795.09;5245569;28;20131;-72
2022/03/28 04:13:15;;;;;;;17.88;8.00;;;8.60;99.90;;;8.60;84.71;101796.00;5245544;28;20059;-71
2022/03/28 04:15:48;;;;;;;21.50;7.80;;;8.60;99.90;;;8.60;84.62;101796.00;5245684;28;20055;-72
2022/03/28 04:18:20;;;;;;;16.58;7.03;;;8.60;99.90;;;8.55;84.43;101787.94;5245370;28;20082;-72
2022/03/28 04:20:52;;;;;;;16.85;7.15;;;8.50;99.90;;;8.51;84.67;101785.06;5245843;28;20149;-72
2022/03/28 04:23:26;;;;;;;18.75;7.13;;;8.50;99.90;;;8.47;84.41;101785.69;5245637;28;20060;-72
2022/03/28 04:25:59;;;;;;;14.02;6.28;;;8.40;99.90;;;8.42;84.45;101786.31;5245571;28;20094;-72
2022/03/28 04:28:31;;;;;;;17.10;6.72;;;8.40;99.90;;;8.37;84.41;101777.34;5245274;28;20143;-71
2022/03/28 04:31:03;;;;;;;20.58;7.30;;;8.40;99.90;;;8.34;84.49;101778.81;5245289;28;20049;-72
2022/03/28 04:33:35;;;;;;;18.55;7.72;;;8.40;99.90;;;8.31;84.51;101776.94;5245907;28;20122;-72
2022/03/28 04:36:07;;;;;;;17.00;7.75;;;8.30;99.90;;;8.27;84.63;101780.16;5245796;28;20071;-71
2022/03/28 04:38:39;;;;;;;16.73;7.10;;;8.30;99.90;;;8.25;84.38;101776.59;5244882;28;20055;-73
2022/03/28 04:41:13;;;;;;;17.15;7.90;;;8.30;99.90;;;8.23;84.51;101777.31;5245503;28;20127;-71
2022/03/28 04:43:45;;;;;;;20.90;7.70;;;8.20;99.90;;;8.18;84.38;101777.03;5245481;28;20048;-72
2022/03/28 04:46:17;;;;;;;15.85;7.38;;;8.20;99.90;;;8.17;84.75;101777.84;5245613;28;20382;-71
2022/03/28 04:48:49;;;;;;;17.05;6.70;;;8.20;99.90;;;8.15;84.62;101764.78;5245143;28;20048;-72
2022/03/28 04:51:21;;;;;;;16.60;6.97;;;8.20;99.90;;;8.17;85.43;101767.44;5245441;28;20516;-71
2022/03/28 04:53:53;;;;;;;14.88;6.68;;;8.20;99.90;;;8.20;85.80;101775.41;5245633;28;20084;-71
2022/03/28 04:56:27;;;;;;;16.65;6.57;;;8.10;99.90;;;8.20;85.70;101775.41;5245332;28;20044;-72
2022/03/28 04:58:59;;;;;;;18.58;6.63;;;8.10;99.90;;;8.16;84.87;101770.84;5244294;28;20055;-71
2022/03/28 05:01:31;;;;;;;17.35;7.18;;;8.10;99.90;;;8.14;85.21;101786.31;5245077;28;20051;-71
2022/03/28 05:04:03;;;;;;;15.75;6.85;;;8.10;99.90;;;8.12;85.44;101789.66;5245512;28;20049;-72
2022/03/28 05:06:35;;;;;;;15.65;6.32;;;8.10;99.90;;;8.08;85.37;101787.66;5245622;28;20048;-71
2022/03/28 05:09:07;;;;;;;18.20;7.45;;;8.10;99.90;;;8.04;85.08;101785.69;5248324;28;20258;-71
2022/03/28 05:11:40;;;;;;;14.23;5.85;;;8.00;99.90;;;8.00;85.09;101783.72;5228171;28;20051;-71
2022/03/28 05:14:12;;;;;;;17.08;6.70;;;8.00;99.90;;;8.00;85.66;101778.50;5207586;28;20395;-72
2022/03/28 05:16:44;;;;;;;14.05;6.30;;;8.00;99.90;;;8.02;85.62;101776.91;5207432;28;20049;-72
2022/03/28 05:19:17;;;;;;;18.25;7.25;;;8.00;99.90;;;8.04;85.76;101780.50;5206871;28;20041;-72
2022/03/28 05:21:49;;;;;;;15.57;6.45;;;8.00;99.90;;;8.05;85.82;101782.28;5207128;28;20049;-72
2022/03/28 05:24:21;;;;;;;17.45;7.03;;;8.00;99.90;;;8.05;86.04;101784.88;5207488;28;20414;-72
2022/03/28 05:26:54;;;;;;;16.52;6.78;;;8.00;99.90;;;8.03;85.66;101787.41;5262589;23;20045;-85
2022/03/28 05:29:26;;;;;;;17.20;6.80;;;8.00;99.90;;;8.01;85.43;101780.31;5256892;28;20495;-85
2022/03/28 05:31:59;;;;;;;19.45;7.05;;;8.00;99.90;;;8.00;85.62;101788.91;5351498;23;20051;-71
2022/03/28 05:34:31;;;;;;;14.70;7.40;;;8.00;99.90;;;7.99;85.60;101788.00;5239846;28;20049;-71
2022/03/28 05:37:06;;;;;;;18.63;6.90;;;8.00;99.90;;;7.98;85.81;101782.72;5227094;28;20053;-71
2022/03/28 05:39:39;;;;;;;17.58;6.72;;;8.00;99.90;;;7.97;86.00;101779.25;5227117;28;20067;-71
2022/03/28 05:42:12;;;;;;;17.45;6.97;;;7.90;99.90;;;8.00;86.32;101778.50;5231713;28;20040;-71
2022/03/28 05:44:45;;;;;;;19.65;6.47;;;8.00;99.90;;;8.04;86.58;101780.50;5248291;28;20048;-69
2022/03/28 05:47:17;;;;;;;16.67;6.93;;;8.10;99.90;;;8.06;86.32;101771.09;5248066;28;20508;-71
2022/03/28 05:49:49;;;;;;;14.77;6.53;;;8.10;99.90;;;8.10;87.05;101771.38;5246450;28;20510;-72
2022/03/28 05:52:21;;;;;;;14.65;6.70;;;8.10;99.90;;;8.16;86.93;101771.75;5234720;28;20687;-71
2022/03/28 05:54:53;;;;;;;16.38;6.78;;;8.20;99.90;;;8.23;87.20;101772.13;5230539;28;20055;-72
2022/03/28 05:57:27;;;;;;;14.70;6.78;;;8.20;99.90;;;8.29;87.44;101768.19;5243891;28;20131;-69
2022/03/28 05:59:59;;;;;;;14.80;6.90;;;8.30;99.90;;;8.35;87.56;101763.38;5229844;28;20061;-67
2022/03/28 06:02:31;;;;;;;17.83;7.22;;;8.40;99.90;;;8.34;87.59;101766.72;5239059;28;20557;-68
2022/03/28 06:05:03;;;;;;;17.00;7.05;;;8.40;99.90;;;8.41;87.60;101768.94;5232547;28;20041;-68
2022/03/28 06:07:35;;;;;;;15.35;6.35;;;8.50;99.90;;;8.52;88.62;101758.25;5226441;28;20045;-69
2022/03/28 06:10:09;;;;;;;14.07;6.50;;;8.60;99.90;;;8.63;88.33;101770.19;5227512;28;20405;-67
2022/03/28 06:12:42;;;;;;;17.42;6.50;;;8.60;99.90;;;8.72;89.01;101762.91;5226943;28;20049;-66
2022/03/28 06:15:15;;;;;;;14.30;5.78;;;8.80;99.90;;;8.81;88.77;101763.47;5229103;28;20041;-69
2022/03/28 06:17:47;;;;;;;14.73;6.10;;;8.90;99.90;;;8.89;88.97;101759.56;5244201;28;20048;-68
2022/03/28 06:20:19;;;;;;;15.75;6.53;;;8.90;99.90;;;8.97;89.19;101760.91;5242344;28;20059;-67
2022/03/28 06:22:51;;;;;;;14.45;6.47;;;9.00;99.90;;;9.29;89.75;101767.00;5226007;28;20733;-69
2022/03/28 06:25:23;;;;;;;16.30;6.80;;;9.20;99.90;;;10.57;89.36;101758.19;5235760;28;20053;-68
2022/03/28 06:27:57;;;;;;;12.73;6.15;;;9.70;99.90;;;12.03;84.32;101763.38;5236652;28;20049;-68
2022/03/28 06:30:29;;;;;;;12.02;5.57;;;10.70;99.90;;;13.36;77.88;101770.66;5225523;28;20041;-68
2022/03/28 06:33:01;;;;;;;15.50;5.55;;;11.70;99.90;;;14.62;71.14;101761.31;5225112;28;20045;-69
2022/03/28 06:35:33;;;;;;;11.48;5.20;;;12.70;99.90;;;15.82;64.22;101756.31;5240698;28;20051;-68
2022/03/28 06:38:05;;;;;;;10.85;5.45;;;13.80;99.90;;;16.69;59.67;101768.28;5242953;28;20136;-68
2022/03/28 06:40:37;;;;;;;9.63;5.15;;;14.70;99.90;;;17.12;56.97;101759.75;5246258;28;20048;-67
2022/03/28 06:43:11;;;;;;;11.07;4.90;;;15.40;99.20;;;17.72;54.48;101761.09;5225694;28;20048;-69
2022/03/28 06:45:44;;;;;;;10.73;5.50;;;16.00;97.20;;;18.31;52.21;101766.63;5228300;28;20413;-69
2022/03/28 06:48:16;;;;;;;9.27;5.13;;;16.60;95.00;;;18.77;50.22;101767.47;5227949;28;20659;-68
2022/03/28 06:50:48;;;;;;;12.52;5.80;;;17.20;92.50;;;19.15;48.91;101768.09;5234025;28;20055;-68
2022/03/28 06:53:20;;;;;;;10.70;5.43;;;17.60;90.40;;;19.42;47.97;101765.84;5235310;28;20048;-68
2022/03/28 06:55:52;;;;;;;11.05;5.93;;;18.00;87.30;;;19.42;47.01;101770.25;5247865;28;20408;-68
2022/03/28 06:58:26;;;;;;;11.65;5.10;;;18.20;82.90;;;19.76;46.49;101769.88;5245027;28;20047;-68
2022/03/28 07:00:58;;;;;;;11.90;5.57;;;18.50;81.30;;;20.00;46.07;101768.38;5245485;28;20044;-68
2022/03/28 07:03:30;;;;;;;11.13;5.47;;;18.80;79.60;;;20.13;45.37;101762.34;5244311;28;20059;-68
2022/03/28 07:06:02;;;;;;;13.35;6.25;;;19.00;77.60;;;20.29;44.79;101756.34;5245434;28;20667;-69
2022/03/28 07:08:34;;;;;;;12.85;6.05;;;19.20;76.30;;;20.45;44.53;101753.88;5244691;28;20413;-69
2022/03/28 07:11:06;;;;;;;12.65;6.25;;;19.30;75.10;;;20.69;43.64;101754.09;5242463;28;20050;-68
2022/03/28 07:13:40;;;;;;;13.65;6.82;;;19.50;73.40;;;20.83;43.53;101748.91;5246499;28;20127;-68
2022/03/28 07:16:12;;;;;;;14.38;6.75;;;19.80;72.80;;;21.01;43.34;101742.88;5246464;28;20508;-67
2022/03/28 07:18:44;;;;;;;15.32;7.43;;;20.00;71.90;;;21.15;42.80;101741.19;5245992;28;20044;-68
2022/03/28 07:21:16;;;;;;;16.23;7.40;;;20.20;70.60;;;21.08;42.74;101739.38;5245724;28;20040;-68
2022/03/28 07:23:48;;;;;;;16.73;7.82;;;20.20;69.90;;;21.00;42.87;101730.50;5246034;28;20048;-68
2022/03/28 07:26:21;;;;;;;17.80;8.20;;;20.10;69.60;;;20.98;43.27;101732.22;5252938;28;20570;-69
2022/03/28 07:28:58;;;;;;;16.13;7.97;;;20.10;70.00;;;20.90;43.52;101731.28;5264329;28;20492;-68
2022/03/28 07:31:30;;;;;;;16.38;7.68;;;20.10;70.10;;;20.98;43.41;101738.41;5245559;28;20264;-68
2022/03/28 07:36:48;;;;;;;17.55;9.00;;;20.20;69.70;;;21.21;42.90;101743.00;5244926;28;20131;-68
2022/03/28 07:39:20;;;;;;;18.48;8.77;;;20.30;69.20;;;21.31;42.86;101729.81;5244511;28;20047;-69
2022/03/28 07:41:53;;;;;;;17.50;8.77;;;20.40;69.00;;;21.42;42.33;101743.16;5245311;28;20619;-68
2022/03/28 07:44:26;;;;;;;17.52;8.63;;;20.50;68.50;;;21.27;42.48;101745.69;5244869;28;20048;-68
2022/03/28 07:46:58;;;;;;;20.40;8.77;;;20.30;68.10;;;21.33;42.69;101744.00;5244719;28;20054;-69
2022/03/28 07:49:31;;;;;;;20.35;9.77;;;20.30;68.80;;;21.59;42.15;101740.59;5245187;28;20064;-68
2022/03/28 07:52:04;;;;;;;17.67;8.45;;;20.30;68.50;;;21.44;42.02;101732.53;5244805;28;20113;-70
2022/03/28 07:54:37;;;;;;;17.95;9.00;;;20.30;67.90;;;21.73;42.08;101736.22;5244786;28;20123;-69
2022/03/28 07:57:09;;;;;;;20.33;9.13;;;20.50;68.30;;;22.06;41.52;101734.53;5234476;28;20448;-69
2022/03/28 07:59:42;;;;;;;16.60;8.45;;;20.60;68.20;;;22.42;41.19;101728.41;5224542;28;20053;-70
2022/03/28 08:02:15;;;;;;;20.80;9.65;;;20.70;68.10;;;22.46;40.34;101736.41;5224671;28;20413;-71
2022/03/28 08:04:47;;;;;;;19.92;9.80;;;20.90;66.60;;;22.61;39.91;101729.31;5232427;28;20049;-71
2022/03/28 08:07:19;;;;;;;19.45;9.23;;;20.80;66.40;;;22.89;39.76;101731.13;5223660;28;20401;-73
2022/03/28 08:09:51;;;;;;;18.30;9.48;;;20.90;67.10;;;22.84;39.40;101722.22;5224003;28;20490;-72
2022/03/28 08:12:23;;;;;;;17.33;8.93;;;21.00;66.30;;;23.26;38.72;101718.63;5224587;28;20048;-71
2022/03/28 08:14:56;;;;;;;21.20;8.80;;;21.10;65.80;;;23.70;38.53;101719.38;5224861;28;20049;-71
2022/03/28 08:17:28;;;;;;;43.63;10.48;;;21.40;66.20;;;24.17;37.26;101704.91;5224521;28;20051;-70
2022/03/28 08:20:00;;;;;;;41.58;11.30;;;21.70;64.90;;;24.48;36.74;101711.81;5224925;28;20409;-72
2022/03/28 08:22:33;;;;;;;19.23;8.73;;;22.00;64.10;;;24.42;37.15;101706.53;5225129;28;20493;-65
2022/03/28 08:25:07;;;;;;;37.75;10.18;;;22.10;63.50;;;24.90;36.15;101706.97;5234002;28;20489;-65
2022/03/28 08:27:41;;;;;;;39.03;10.77;;;22.50;62.90;;;25.60;34.49;101702.63;5245675;28;20139;-64
2022/03/28 08:30:14;;;;;;;31.70;10.23;;;23.00;61.30;;;26.10;33.81;101696.63;5244222;28;20040;-65
2022/03/28 08:32:47;;;;;;;25.05;9.35;;;23.30;60.30;;;26.68;32.82;101695.69;5242718;28;20048;-65
2022/03/28 08:35:19;;;;;;;25.58;9.85;;;23.70;59.20;;;27.25;32.26;101697.31;5242054;28;20131;-65
2022/03/28 08:37:51;;;;;;;39.03;10.48;;;24.20;58.60;;;27.91;31.25;101698.59;5237738;28;20512;-65
2022/03/28 08:40:23;;;;;;;28.30;9.82;;;24.70;57.50;;;28.26;30.24;101687.94;5237950;28;20068;-64
2022/03/28 08:42:56;;;;;;;24.45;8.63;;;25.10;55.70;;;28.44;29.81;101691.13;5248660;28;20045;-64
2022/03/28 08:45:29;;;;;;;21.48;9.30;;;25.20;54.80;;;28.76;29.14;101688.50;5247045;28;20050;-66
2022/03/28 08:48:02;;;;;;;20.42;9.40;;;25.60;54.40;;;28.96;28.75;101693.34;5249154;28;20056;-65
2022/03/28 08:50:35;;;;;;;20.02;9.25;;;25.70;53.60;;;29.04;28.41;101690.44;5249815;28;20052;-65
2022/03/28 08:53:07;;;;;;;20.05;9.38;;;25.90;53.30;;;29.06;28.60;101685.91;5250270;28;20127;-65
2022/03/28 08:55:41;;;;;;;22.25;9.85;;;25.90;53.10;;;29.16;28.67;101687.44;5250094;28;20129;-64
2022/03/28 08:58:13;;;;;;;17.63;9.45;;;26.10;52.90;;;29.00;28.94;101676.22;5250998;28;20390;-65
2022/03/28 09:00:47;;;;;;;19.77;9.27;;;26.10;52.80;;;28.82;29.03;101682.97;5251092;28;20044;-66
2022/03/28 09:03:19;;;;;;;20.73;9.90;;;26.00;52.50;;;28.31;29.58;101675.34;5249665;28;20344;-65
2022/03/28 09:05:51;;;;;;;17.23;9.00;;;25.80;52.90;;;27.91;30.70;101674.50;5249646;28;20112;-64
2022/03/28 09:08:25;;;;;;;19.50;10.52;;;25.50;53.70;;;27.63;31.14;101675.09;5249700;28;20044;-64
2022/03/28 09:10:57;;;;;;;22.17;9.93;;;25.40;54.10;;;27.27;31.70;101672.31;5249235;28;20048;-64
2022/03/28 09:13:44;;;;;;;23.92;11.40;;;25.30;54.20;;;26.78;32.46;101667.84;5249773;28;20402;-64
2022/03/28 09:16:20;;;;;;;21.40;10.25;;;25.10;54.60;;;26.10;33.40;101669.91;5249245;28;20382;-64
2022/03/28 09:18:56;;;;;;;19.27;9.68;;;24.70;55.00;;;25.30;35.05;101662.13;5249107;28;20044;-64
2022/03/28 09:21:29;;;;;;;23.38;10.93;;;24.30;55.90;;;24.72;36.21;101659.19;5249893;28;20131;-64
2022/03/28 09:24:05;;;;;;;24.98;11.30;;;23.80;57.10;;;24.34;37.09;101652.41;5249274;28;20053;-63
2022/03/28 09:26:38;;;;;;;23.65;10.90;;;23.50;57.60;;;23.92;37.73;101654.44;5249368;28;20057;-63
2022/03/28 09:29:10;;;;;;;22.10;11.48;;;23.20;58.90;;;23.61;38.49;101647.53;5249164;28;20131;-64
2022/03/28 09:31:43;;;;;;;24.17;10.85;;;22.90;59.00;;;23.39;39.37;101649.41;5249060;28;20139;-64
2022/03/28 09:34:17;;;;;;;26.13;11.88;;;22.60;60.00;;;23.28;39.98;101638.84;5249280;28;20055;-64
2022/03/28 09:36:51;;;;;;;;;;;22.50;60.70;;;23.20;40.29;101637.97;5249702;28;20131;-65
2022/03/28 09:39:25;;;;;;;23.83;11.40;;;22.40;61.70;;;23.20;40.17;101632.63;5248979;28;20444;-64
2022/03/28 09:42:04;;;;;;;24.05;11.25;;;22.30;61.50;;;23.16;40.71;101638.88;5249530;28;20120;-64
2022/03/28 09:44:38;;;;;;;24.83;10.88;;;22.30;62.30;;;23.15;40.93;101632.69;5249128;28;20049;-65
2022/03/28 09:47:14;;;;;;;25.27;12.30;;;22.20;62.50;;;23.20;40.89;101625.53;5248468;28;20390;-64
2022/03/28 09:49:49;;;;;;;27.10;12.68;;;22.20;62.60;;;23.14;40.56;101614.94;5248905;28;20507;-66
2022/03/28 09:52:25;;;;;;;23.50;12.10;;;22.20;62.40;;;23.12;41.07;101613.19;5248102;28;20047;-67
2022/03/28 09:54:59;;;;;;;25.67;12.55;;;22.20;62.90;;;22.94;41.00;101607.03;5242882;28;20053;-67
2022/03/28 09:57:34;;;;;;;27.08;12.20;;;22.10;62.90;;;22.85;41.64;101607.03;5244101;28;20052;-68
2022/03/28 10:00:12;;;;;;;26.63;12.27;;;22.00;63.60;;;22.87;41.41;101605.28;5238242;28;20079;-67
2022/03/28 10:02:47;;;;;;;31.92;11.95;;;22.00;63.60;;;22.78;41.46;101599.97;5247666;28;20040;-67
2022/03/28 10:05:20;;;;;;;30.48;12.73;;;21.90;63.70;;;22.75;41.41;101589.31;5248783;28;20149;-68
2022/03/28 10:07:54;;;;;;;22.55;11.45;;;21.80;63.70;;;22.83;41.42;101586.66;5248326;28;20084;-67
2022/03/28 10:10:26;;;;;;;23.83;11.05;;;21.90;63.80;;;22.96;41.19;101584.00;5248341;28;20485;-67
2022/03/28 10:13:01;;;;;;;22.05;10.02;;;22.00;63.60;;;23.14;40.69;101584.78;5248364;28;20049;-67
2022/03/28 10:15:33;;;;;;;22.20;10.32;;;22.10;63.30;;;23.39;40.33;101583.78;5248542;28;20048;-66
2022/03/28 10:18:07;;;;;;;23.85;10.68;;;22.30;62.80;;;23.56;39.42;101587.22;5234788;28;20072;-67
2022/03/28 10:20:44;;;;;;;21.52;10.40;;;22.50;62.10;;;23.34;38.59;101574.94;5226877;28;20482;-67
2022/03/28 10:23:18;;;;;;;20.25;9.10;;;22.40;60.20;;;23.21;38.83;101583.88;5231782;28;20469;-67
2022/03/28 10:25:53;;;;;;;18.33;8.32;;;22.30;60.50;;;23.17;39.41;101582.13;5238514;28;20131;-70
2022/03/28 10:28:25;;;;;;;18.92;7.43;;;22.30;61.40;;;23.21;39.26;101575.88;5247590;28;20477;-71
2022/03/28 10:31:19;;;;;;;24.42;10.98;;;22.30;61.00;;;23.04;37.87;101570.66;5247592;28;20119;-70
2022/03/28 10:33:54;;;;;;;18.25;8.15;;;22.30;59.10;;;23.00;38.54;101569.78;5247660;28;20049;-72
2022/03/28 10:36:28;;;;;;;21.05;9.02;;;22.30;59.50;;;23.13;39.03;101562.63;5247564;28;20053;-70
2022/03/28 10:39:34;;;;;;;23.27;10.23;;;22.40;60.20;;;23.29;39.08;101561.69;5247251;28;20048;-71
2022/03/28 10:42:10;;;;;;;21.80;8.95;;;22.40;60.40;;;23.42;38.25;101553.63;5247885;28;20398;-71
2022/03/28 10:44:48;;;;;;;21.25;9.93;;;22.50;59.60;;;23.61;38.19;101542.00;5247626;28;20142;-70
2022/03/28 10:47:41;;;;;;;15.32;7.50;;;22.60;59.60;;;23.72;37.70;101534.78;5247339;28;20049;-70
2022/03/28 10:50:20;;;;;;;20.80;9.85;;;22.80;59.40;;;23.77;37.67;101537.44;5247865;28;20049;-70